createdAt,value
2023-05-11T00:02:42.624Z,6.33
2023-05-11T00:07:46.107Z,6.80
2023-05-11T00:12:50.503Z,7.33
2023-05-11T00:17:53.565Z,5.97
2023-05-11T00:22:56.841Z,4.53
2023-05-11T00:28:01.472Z,6.07
2023-05-11T00:33:05.171Z,6.60
2023-05-11T00:38:08.209Z,4.13
2023-05-11T00:43:12.997Z,5.80
2023-05-11T00:48:16.729Z,3.33
2023-05-11T00:53:20.146Z,4.63
2023-05-11T00:58:25.668Z,3.37
2023-05-11T01:03:29.877Z,3.57
2023-05-11T01:08:40.976Z,3.33
2023-05-11T01:13:50.308Z,3.40
2023-05-11T01:19:00.782Z,4.13
2023-05-11T01:24:24.062Z,4.20
2023-05-11T01:29:43.985Z,3.97
2023-05-11T01:34:53.260Z,7.53
2023-05-11T01:39:58.703Z,5.77
2023-05-11T01:45:04.554Z,4.70
2023-05-11T01:50:10.848Z,4.00
2023-05-11T01:55:16.757Z,6.57
2023-05-11T02:00:20.457Z,5.57
2023-05-11T02:05:26.199Z,6.73
2023-05-11T02:10:30.638Z,4.37
2023-05-11T02:15:35.350Z,3.90
2023-05-11T02:20:43.207Z,4.77
2023-05-11T02:25:46.349Z,6.17
2023-05-11T02:30:54.285Z,5.60
2023-05-11T02:36:00.617Z,4.83
2023-05-11T02:41:08.385Z,5.13
2023-05-11T02:46:16.783Z,4.50
2023-05-11T02:51:25.740Z,6.00
2023-05-11T02:56:30.105Z,4.60
2023-05-11T03:01:34.529Z,5.13
2023-05-11T03:06:39.396Z,5.77
2023-05-11T03:11:43.414Z,5.87
2023-05-11T03:16:47.619Z,6.30
2023-05-11T03:21:53.379Z,5.83
2023-05-11T03:26:58.367Z,8.43
2023-05-11T03:32:01.954Z,5.80
2023-05-11T03:37:07.666Z,6.10
2023-05-11T03:42:13.419Z,7.70
2023-05-11T03:47:18.595Z,10.13
2023-05-11T03:52:24.116Z,8.53
2023-05-11T03:57:27.827Z,9.03
2023-05-11T04:02:31.511Z,9.60
2023-05-11T04:07:37.504Z,9.80
2023-05-11T04:12:40.925Z,10.77
2023-05-11T04:17:44.254Z,24.97
2023-05-11T04:22:48.756Z,18.27
2023-05-11T04:27:52.162Z,13.17
2023-05-11T04:32:55.235Z,41.43
2023-05-11T04:37:59.617Z,14.03
2023-05-11T04:43:02.842Z,28.27
2023-05-11T04:48:07.000Z,14.40
2023-05-11T04:53:11.526Z,9.53
2023-05-11T04:58:14.769Z,8.57
2023-05-11T05:03:17.883Z,9.03
2023-05-11T05:08:22.478Z,11.17
2023-05-11T05:13:26.006Z,10.43
2023-05-11T05:18:29.414Z,8.97
2023-05-11T05:23:34.477Z,9.17
2023-05-11T05:28:37.568Z,9.00
2023-05-11T05:33:41.074Z,8.50
2023-05-11T05:38:45.483Z,9.80
2023-05-11T05:43:48.636Z,10.43
2023-05-11T05:48:51.668Z,12.47
2023-05-11T05:53:57.056Z,16.50
2023-05-11T05:59:00.267Z,20.40
2023-05-11T06:04:03.851Z,18.87
2023-05-11T06:09:09.084Z,18.87
2023-05-11T06:14:12.498Z,19.23
2023-05-11T06:19:15.576Z,18.33
2023-05-11T06:24:20.188Z,18.60
2023-05-11T06:29:23.463Z,17.83
2023-05-11T06:34:26.624Z,17.27
2023-05-11T06:39:31.292Z,16.00
2023-05-11T06:44:34.427Z,17.13
2023-05-11T06:49:37.864Z,17.27
2023-05-11T06:54:42.499Z,17.47
2023-05-11T06:59:45.924Z,18.50
2023-05-11T07:04:49.191Z,17.10
2023-05-11T07:09:54.015Z,14.27
2023-05-11T07:14:57.524Z,16.10
2023-05-11T07:20:00.570Z,15.87
2023-05-11T07:25:06.020Z,15.80
2023-05-11T07:30:09.813Z,15.23
2023-05-11T07:35:13.301Z,15.43
2023-05-11T07:40:18.335Z,15.27
2023-05-11T07:45:21.591Z,15.67
2023-05-11T07:50:25.213Z,15.60
2023-05-11T07:55:30.554Z,16.00
2023-05-11T08:00:34.013Z,15.40
2023-05-11T08:05:38.257Z,13.70
2023-05-11T08:10:43.031Z,12.83
2023-05-11T08:15:46.088Z,12.90
2023-05-11T08:20:49.447Z,13.70
2023-05-11T08:25:55.947Z,12.13
2023-05-11T08:31:00.476Z,11.73
2023-05-11T08:36:04.244Z,11.87
2023-05-11T08:41:09.189Z,12.27
2023-05-11T08:46:15.086Z,12.20
2023-05-11T08:51:18.558Z,10.87
2023-05-11T08:56:24.280Z,11.87
2023-05-11T09:01:30.397Z,9.63
2023-05-11T09:06:35.272Z,10.27
2023-05-11T09:11:40.538Z,10.53
2023-05-11T09:16:44.064Z,10.03
2023-05-11T09:21:48.546Z,10.80
2023-05-11T09:27:10.495Z,10.53
2023-05-11T09:32:13.649Z,9.83
2023-05-11T09:37:19.181Z,10.47
2023-05-11T09:42:23.970Z,10.53
2023-05-11T09:47:27.684Z,10.87
2023-05-11T09:52:31.835Z,12.07
2023-05-11T09:57:36.234Z,10.57
2023-05-11T10:02:39.991Z,9.57
2023-05-11T10:07:43.242Z,9.90
2023-05-11T10:12:47.998Z,10.23
2023-05-11T10:17:51.820Z,9.00
2023-05-11T10:22:56.848Z,9.53
2023-05-11T10:28:01.454Z,8.87
2023-05-11T10:33:07.874Z,8.20
2023-05-11T10:38:12.314Z,9.67
2023-05-11T10:43:33.945Z,9.23
2023-05-11T10:48:55.278Z,10.43
2023-05-11T10:54:07.901Z,9.63
2023-05-11T10:59:44.087Z,9.13
2023-05-11T11:04:49.857Z,7.67
2023-05-11T11:09:56.465Z,8.13
2023-05-11T11:15:02.341Z,8.60
2023-05-11T11:20:07.330Z,10.80
2023-05-11T11:25:11.593Z,8.23
2023-05-11T11:30:19.795Z,7.97
2023-05-11T11:35:48.647Z,9.97
2023-05-11T11:40:53.212Z,8.53
2023-05-11T11:45:59.874Z,11.40
2023-05-11T11:51:06.039Z,8.73
2023-05-11T11:56:31.128Z,8.57
2023-05-11T12:01:38.428Z,8.90
2023-05-11T12:06:44.664Z,8.90
2023-05-11T12:11:49.145Z,8.57
2023-05-11T12:17:04.193Z,7.60
2023-05-11T12:22:07.650Z,8.13
2023-05-11T12:27:11.184Z,8.13
2023-05-11T12:32:16.005Z,8.30
2023-05-11T12:37:19.053Z,8.50
2023-05-11T12:42:22.748Z,8.43
2023-05-11T12:47:27.681Z,10.40
2023-05-11T12:52:31.137Z,9.67
2023-05-11T12:57:34.177Z,11.33
2023-05-11T13:02:45.874Z,12.80
2023-05-11T13:07:49.975Z,14.83
2023-05-11T13:12:53.594Z,14.37
2023-05-11T13:17:59.752Z,14.87
2023-05-11T13:23:07.794Z,14.33
2023-05-11T13:28:11.287Z,15.87
2023-05-11T13:33:15.962Z,15.20
2023-05-11T13:38:19.351Z,13.80
2023-05-11T13:43:22.770Z,14.40
2023-05-11T13:48:27.562Z,16.07
2023-05-11T13:53:30.903Z,16.27
2023-05-11T13:58:34.326Z,15.43
2023-05-11T14:03:40.820Z,17.20
2023-05-11T14:08:45.303Z,16.90
2023-05-11T14:13:49.174Z,14.60
2023-05-11T14:18:53.985Z,16.13
2023-05-11T14:24:10.463Z,15.90
2023-05-11T14:29:15.433Z,14.33
2023-05-11T14:34:20.685Z,15.87
2023-05-11T14:39:23.960Z,16.80
2023-05-11T14:44:27.242Z,17.00
2023-05-11T14:49:31.696Z,14.83
2023-05-11T14:54:36.350Z,15.60
2023-05-11T14:59:51.051Z,14.93
2023-05-11T15:05:03.099Z,15.30
2023-05-11T15:10:06.725Z,14.30
2023-05-11T15:15:10.833Z,12.23
2023-05-11T15:20:15.810Z,9.93
2023-05-11T15:25:19.597Z,6.90
2023-05-11T15:30:22.952Z,6.47
2023-05-11T15:35:27.680Z,5.47
2023-05-11T15:40:30.841Z,6.40
2023-05-11T15:45:34.406Z,5.17
2023-05-11T15:50:39.142Z,4.93
2023-05-11T15:55:45.328Z,5.77
2023-05-11T16:00:49.392Z,5.33
2023-05-11T16:05:54.105Z,5.20
2023-05-11T16:10:57.127Z,5.47
2023-05-11T16:16:00.855Z,5.50
2023-05-11T16:21:05.444Z,5.87
2023-05-11T16:26:08.704Z,5.27
2023-05-11T16:31:11.751Z,11.43
2023-05-11T16:36:16.676Z,6.30
2023-05-11T16:41:20.054Z,6.10
2023-05-11T16:46:23.182Z,6.77
2023-05-11T16:51:28.304Z,7.53
2023-05-11T16:56:31.904Z,6.10
2023-05-11T17:01:35.349Z,7.43
2023-05-11T17:06:39.774Z,6.73
2023-05-11T17:11:42.773Z,5.87
2023-05-11T17:16:46.262Z,5.83
2023-05-11T17:21:51.123Z,7.23
2023-05-11T17:26:54.240Z,7.53
2023-05-11T17:31:57.364Z,7.20
2023-05-11T17:37:01.943Z,7.03
2023-05-11T17:42:05.657Z,7.70
2023-05-11T17:47:08.835Z,5.90
2023-05-11T17:52:13.593Z,7.63
2023-05-11T17:57:16.862Z,7.53
2023-05-11T18:02:19.891Z,8.90
2023-05-11T18:07:25.845Z,10.03
2023-05-11T18:12:30.676Z,10.60
2023-05-11T18:17:34.005Z,11.13
2023-05-11T18:22:38.781Z,8.63
2023-05-11T18:27:42.095Z,9.23
2023-05-11T18:32:45.505Z,11.63
2023-05-11T18:37:50.709Z,9.97
2023-05-11T18:42:53.852Z,7.87
2023-05-11T18:47:57.438Z,8.43
2023-05-11T18:53:02.586Z,7.90
2023-05-11T18:58:05.991Z,7.00
2023-05-11T19:03:09.541Z,7.73
2023-05-11T19:08:14.009Z,7.20
2023-05-11T19:13:17.099Z,6.90
2023-05-11T19:18:20.436Z,7.73
2023-05-11T19:23:25.221Z,9.80
2023-05-11T19:28:29.740Z,8.70
2023-05-11T19:33:33.324Z,6.73
2023-05-11T19:38:38.028Z,6.80
2023-05-11T19:43:41.033Z,6.73
2023-05-11T19:48:44.420Z,7.27
2023-05-11T19:53:48.809Z,7.30
2023-05-11T19:58:51.809Z,7.43
2023-05-11T20:03:54.928Z,7.83
2023-05-11T20:08:59.330Z,7.57
2023-05-11T20:14:02.349Z,7.83
2023-05-11T20:19:05.434Z,8.60
2023-05-11T20:24:09.925Z,9.87
2023-05-11T20:29:13.876Z,9.57
2023-05-11T20:34:16.936Z,10.10
2023-05-11T20:39:23.054Z,12.07
2023-05-11T20:44:26.923Z,10.27
2023-05-11T20:49:38.202Z,10.43
2023-05-11T20:54:43.410Z,10.27
2023-05-11T21:04:53.579Z,9.50
2023-05-11T21:09:58.352Z,10.83
2023-05-11T21:15:01.820Z,11.03
2023-05-11T21:20:06.148Z,13.80
2023-05-11T21:25:10.772Z,11.17
2023-05-11T21:30:14.052Z,13.87
2023-05-11T21:35:17.798Z,11.63
2023-05-11T21:40:22.619Z,12.00
2023-05-11T21:45:25.683Z,13.07
2023-05-11T21:50:28.681Z,13.33
2023-05-11T21:55:33.452Z,13.27
2023-05-11T22:00:37.707Z,12.43
2023-05-11T22:05:40.927Z,13.77
2023-05-11T22:10:45.265Z,13.73
2023-05-11T22:15:48.279Z,13.80
2023-05-11T22:20:51.854Z,16.37
2023-05-11T22:25:56.592Z,12.00
2023-05-11T22:31:00.214Z,12.40
2023-05-11T22:36:03.701Z,12.37
2023-05-11T22:41:08.089Z,13.10
2023-05-11T22:46:11.724Z,13.90
2023-05-11T22:51:14.788Z,15.80
2023-05-11T22:56:20.199Z,14.30
2023-05-11T23:01:23.679Z,14.10
2023-05-11T23:06:27.462Z,8.80
2023-05-11T23:11:32.342Z,9.50
2023-05-11T23:16:35.841Z,8.80
2023-05-11T23:21:38.870Z,9.37
2023-05-11T23:26:43.593Z,7.90
2023-05-11T23:31:46.991Z,6.80
2023-05-11T23:36:50.467Z,5.33
2023-05-11T23:41:55.226Z,4.90
2023-05-11T23:46:58.696Z,4.60
2023-05-11T23:52:02.105Z,3.97
2023-05-11T23:57:06.638Z,4.90
